createdAt,value
2022-08-29T00:05:02.260Z,14.70
2022-08-29T00:11:06.703Z,14.60
2022-08-29T00:17:08.435Z,14.60
2022-08-29T00:23:11.338Z,14.50
2022-08-29T00:29:13.389Z,14.50
2022-08-29T00:35:19.014Z,14.50
2022-08-29T00:41:20.940Z,14.50
2022-08-29T00:47:29.780Z,14.40
2022-08-29T00:53:38.657Z,14.40
2022-08-29T00:59:41.311Z,14.40
2022-08-29T01:05:43.224Z,14.40
2022-08-29T01:12:03.630Z,14.30
2022-08-29T01:18:07.567Z,14.20
2022-08-29T01:24:15.375Z,14.30
2022-08-29T01:30:17.360Z,14.20
2022-08-29T01:36:32.454Z,14.10
2022-08-29T01:42:36.743Z,14.00
2022-08-29T01:48:41.754Z,14.00
2022-08-29T01:54:45.661Z,14.00
2022-08-29T02:00:47.451Z,14.10
2022-08-29T02:06:49.502Z,14.10
2022-08-29T02:12:53.503Z,14.10
2022-08-29T02:18:56.185Z,13.90
2022-08-29T02:24:57.950Z,14.00
2022-08-29T02:30:59.959Z,14.20
2022-08-29T02:37:01.786Z,14.20
2022-08-29T02:43:04.273Z,14.20
2022-08-29T02:49:06.140Z,14.10
2022-08-29T02:55:10.161Z,13.90
2022-08-29T03:01:12.294Z,13.90
2022-08-29T03:07:14.185Z,14.00
2022-08-29T03:13:17.664Z,14.10
2022-08-29T03:19:19.380Z,14.20
2022-08-29T03:25:23.553Z,14.10
2022-08-29T03:31:25.382Z,14.10
2022-08-29T03:37:27.500Z,14.20
2022-08-29T03:43:29.210Z,14.10
2022-08-29T03:49:31.006Z,14.10
2022-08-29T03:55:32.981Z,14.00
2022-08-29T04:01:34.994Z,13.80
2022-08-29T04:07:42.796Z,13.80
2022-08-29T04:13:45.165Z,13.80
2022-08-29T04:19:46.913Z,13.80
2022-08-29T04:25:48.601Z,13.80
2022-08-29T04:31:51.522Z,13.70
2022-08-29T04:37:53.694Z,13.80
2022-08-29T04:43:55.406Z,13.80
2022-08-29T04:49:57.571Z,13.80
2022-08-29T04:56:06.524Z,13.80
2022-08-29T05:02:08.422Z,13.80
2022-08-29T05:08:10.258Z,14.00
2022-08-29T05:14:12.120Z,13.80
2022-08-29T05:20:14.329Z,13.90
2022-08-29T05:26:16.072Z,13.50
2022-08-29T05:32:19.593Z,13.60
2022-08-29T05:38:21.631Z,13.70
2022-08-29T05:44:23.646Z,13.80
2022-08-29T05:50:25.457Z,13.80
2022-08-29T05:56:27.446Z,14.00
2022-08-29T06:02:29.378Z,14.10
2022-08-29T06:08:31.185Z,14.10
2022-08-29T06:14:33.031Z,14.10
2022-08-29T06:20:37.212Z,14.20
2022-08-29T06:26:38.943Z,14.20
2022-08-29T06:32:40.932Z,14.20
2022-08-29T06:38:42.710Z,14.30
2022-08-29T06:44:45.222Z,14.30
2022-08-29T06:50:47.163Z,14.40
2022-08-29T06:56:49.720Z,14.40
2022-08-29T07:02:53.137Z,14.60
2022-08-29T07:08:56.523Z,14.60
2022-08-29T07:14:58.431Z,14.90
2022-08-29T07:21:00.184Z,14.70
2022-08-29T07:27:01.914Z,14.80
2022-08-29T07:33:03.847Z,15.00
2022-08-29T07:39:11.175Z,15.20
2022-08-29T07:45:12.985Z,15.20
2022-08-29T07:51:20.276Z,15.40
2022-08-29T07:57:22.922Z,15.50
2022-08-29T08:03:24.804Z,15.70
2022-08-29T08:09:27.144Z,15.70
2022-08-29T08:15:28.948Z,15.90
2022-08-29T08:21:30.840Z,16.10
2022-08-29T08:27:33.052Z,16.30
2022-08-29T08:33:39.919Z,16.30
2022-08-29T08:39:42.310Z,16.40
2022-08-29T08:45:44.667Z,16.40
2022-08-29T08:51:53.579Z,16.60
2022-08-29T08:58:06.726Z,16.60
2022-08-29T09:04:39.262Z,16.70
2022-08-29T09:10:59.420Z,16.80
2022-08-29T09:17:05.116Z,16.90
2022-08-29T09:23:39.912Z,17.10
2022-08-29T09:29:41.626Z,17.40
2022-08-29T09:35:51.868Z,17.50
2022-08-29T09:41:57.694Z,17.60
2022-08-29T09:48:17.497Z,17.60
2022-08-29T09:54:31.227Z,17.70
2022-08-29T10:00:37.568Z,17.90
2022-08-29T10:06:45.285Z,18.10
2022-08-29T10:13:09.064Z,18.20
2022-08-29T10:19:15.641Z,18.40
2022-08-29T10:25:36.687Z,18.20
2022-08-29T10:31:48.590Z,18.70
2022-08-29T10:37:53.390Z,18.70
2022-08-29T10:50:44.485Z,18.30
2022-08-29T10:56:49.130Z,18.20
2022-08-29T11:03:28.261Z,18.10
2022-08-29T11:09:54.437Z,18.10
2022-08-29T11:16:09.818Z,18.50
2022-08-29T11:22:21.691Z,18.70
2022-08-29T11:28:33.145Z,19.00
2022-08-29T11:34:48.303Z,19.20
2022-08-29T11:47:44.680Z,19.50
2022-08-29T11:53:47.687Z,19.80
2022-08-29T11:59:49.422Z,20.20
2022-08-29T12:05:57.908Z,20.40
2022-08-29T12:12:02.642Z,20.40
2022-08-29T12:18:13.321Z,20.30
2022-08-29T12:24:29.360Z,20.90
2022-08-29T12:30:39.465Z,21.40
2022-08-29T12:36:52.999Z,21.00
2022-08-29T12:43:17.535Z,21.10
2022-08-29T12:49:30.612Z,21.40
2022-08-29T12:55:39.780Z,21.10
2022-08-29T13:01:48.478Z,20.60
2022-08-29T13:08:12.936Z,20.60
2022-08-29T13:14:15.255Z,20.50
2022-08-29T13:20:42.635Z,20.50
2022-08-29T13:27:05.506Z,20.60
2022-08-29T13:33:19.736Z,20.60
2022-08-29T13:39:41.737Z,20.80
2022-08-29T13:45:44.418Z,21.30
2022-08-29T13:51:46.400Z,21.70
2022-08-29T13:57:52.197Z,22.10
2022-08-29T14:03:55.920Z,21.90
2022-08-29T14:09:58.184Z,21.70
2022-08-29T14:16:00.174Z,21.80
2022-08-29T14:22:02.483Z,21.90
2022-08-29T14:28:04.719Z,21.70
2022-08-29T14:34:07.137Z,21.60
2022-08-29T14:40:09.922Z,21.80
2022-08-29T14:46:12.539Z,21.80
2022-08-29T14:52:15.150Z,22.00
2022-08-29T14:58:17.229Z,22.20
2022-08-29T15:04:21.846Z,22.00
2022-08-29T15:10:38.533Z,22.00
2022-08-29T15:16:40.319Z,21.80
2022-08-29T15:22:42.012Z,22.50
2022-08-29T15:28:43.732Z,23.20
2022-08-29T15:34:45.887Z,23.70
2022-08-29T15:40:48.468Z,23.90
2022-08-29T15:46:51.251Z,23.90
2022-08-29T15:52:53.680Z,23.70
2022-08-29T15:58:55.486Z,23.40
2022-08-29T16:04:57.663Z,23.10
2022-08-29T16:10:59.984Z,23.40
2022-08-29T16:17:02.967Z,23.40
2022-08-29T16:23:05.172Z,23.50
2022-08-29T16:29:08.487Z,23.40
2022-08-29T16:35:10.832Z,23.50
2022-08-29T16:41:18.739Z,23.50
2022-08-29T16:47:20.460Z,23.30
2022-08-29T16:53:22.556Z,23.50
2022-08-29T16:59:24.508Z,23.10
2022-08-29T17:05:27.027Z,23.00
2022-08-29T17:11:29.074Z,22.80
2022-08-29T17:17:30.814Z,22.50
2022-08-29T17:23:33.619Z,22.30
2022-08-29T17:29:35.839Z,22.00
2022-08-29T17:35:37.974Z,21.80
2022-08-29T17:41:39.979Z,21.70
2022-08-29T17:47:42.058Z,21.60
2022-08-29T17:53:44.837Z,21.40
2022-08-29T17:59:46.576Z,21.30
2022-08-29T18:05:48.395Z,21.20
2022-08-29T18:11:52.625Z,21.10
2022-08-29T18:17:54.678Z,21.00
2022-08-29T18:23:57.497Z,20.80
2022-08-29T18:30:01.961Z,20.70
2022-08-29T18:36:06.806Z,20.60
2022-08-29T18:42:24.686Z,20.40
2022-08-29T18:48:31.113Z,20.30
2022-08-29T18:54:33.470Z,20.30
2022-08-29T19:00:36.426Z,20.10
2022-08-29T19:06:38.170Z,20.00
2022-08-29T19:12:40.431Z,19.90
2022-08-29T19:18:42.249Z,19.80
2022-08-29T19:24:44.165Z,19.70
2022-08-29T19:30:47.681Z,19.60
2022-08-29T19:36:50.203Z,19.60
2022-08-29T19:42:54.026Z,19.50
2022-08-29T19:48:55.864Z,19.40
2022-08-29T19:55:00.240Z,19.40
2022-08-29T20:01:04.363Z,19.40
2022-08-29T20:07:08.740Z,19.20
2022-08-29T20:13:10.466Z,19.10
2022-08-29T20:19:12.576Z,19.00
2022-08-29T20:25:15.753Z,19.00
2022-08-29T20:31:18.865Z,19.00
2022-08-29T20:37:22.680Z,18.90
2022-08-29T20:43:24.532Z,18.80
2022-08-29T20:49:27.047Z,18.70
2022-08-29T20:55:28.924Z,18.60
2022-08-29T21:01:30.679Z,18.60
2022-08-29T21:07:32.560Z,18.50
2022-08-29T21:13:34.285Z,18.40
2022-08-29T21:19:37.501Z,18.30
2022-08-29T21:25:40.733Z,18.10
2022-08-29T21:31:43.195Z,18.00
2022-08-29T21:37:44.948Z,17.80
2022-08-29T21:43:46.947Z,17.90
2022-08-29T21:49:51.613Z,17.70
2022-08-29T21:55:53.316Z,17.60
2022-08-29T22:01:55.969Z,17.50
2022-08-29T22:07:58.075Z,17.40
2022-08-29T22:13:59.812Z,17.40
2022-08-29T22:20:02.046Z,17.30
2022-08-29T22:26:03.766Z,17.40
2022-08-29T22:32:05.627Z,17.30
2022-08-29T22:38:07.889Z,17.20
2022-08-29T22:44:47.146Z,17.00
2022-08-29T22:50:31.478Z,16.90
2022-08-29T22:56:36.531Z,16.90
2022-08-29T23:02:38.628Z,17.10
2022-08-29T23:08:40.395Z,16.90
2022-08-29T23:14:46.376Z,16.80
2022-08-29T23:20:49.145Z,16.60
2022-08-29T23:26:51.205Z,16.60
2022-08-29T23:32:52.941Z,16.60
2022-08-29T23:38:54.658Z,16.30
2022-08-29T23:44:58.078Z,16.20
2022-08-29T23:51:04.204Z,16.20
2022-08-29T23:57:05.974Z,16.20
